sensor_id;sensor_type;location;lat;lon;timestamp;P1;durP1;ratioP1;P2;durP2;ratioP2
2494;SDS011;1258;48.336;14.322;2023-12-20T00:00:22;4.10;;;3.63;;
2494;SDS011;1258;48.336;14.322;2023-12-20T00:02:49;4.50;;;4.10;;
2494;SDS011;1258;48.336;14.322;2023-12-20T00:05:16;4.83;;;4.43;;
2494;SDS011;1258;48.336;14.322;2023-12-20T00:07:43;5.43;;;4.27;;
2494;SDS011;1258;48.336;14.322;2023-12-20T00:10:10;4.43;;;4.03;;
2494;SDS011;1258;48.336;14.322;2023-12-20T00:12:38;4.30;;;3.90;;
2494;SDS011;1258;48.336;14.322;2023-12-20T00:15:07;4.90;;;4.50;;
2494;SDS011;1258;48.336;14.322;2023-12-20T00:17:34;5.63;;;5.10;;
2494;SDS011;1258;48.336;14.322;2023-12-20T00:20:01;5.53;;;5.07;;
2494;SDS011;1258;48.336;14.322;2023-12-20T00:22:28;5.40;;;4.90;;
2494;SDS011;1258;48.336;14.322;2023-12-20T00:24:55;5.10;;;4.70;;
2494;SDS011;1258;48.336;14.322;2023-12-20T00:27:22;6.37;;;5.77;;
2494;SDS011;1258;48.336;14.322;2023-12-20T00:29:49;5.10;;;4.60;;
2494;SDS011;1258;48.336;14.322;2023-12-20T00:32:17;4.57;;;4.17;;
2494;SDS011;1258;48.336;14.322;2023-12-20T00:34:45;6.77;;;5.43;;
2494;SDS011;1258;48.336;14.322;2023-12-20T00:37:12;4.83;;;4.43;;
2494;SDS011;1258;48.336;14.322;2023-12-20T00:39:39;4.83;;;4.43;;
2494;SDS011;1258;48.336;14.322;2023-12-20T00:42:06;6.77;;;6.07;;
2494;SDS011;1258;48.336;14.322;2023-12-20T00:44:33;6.10;;;5.50;;
2494;SDS011;1258;48.336;14.322;2023-12-20T00:47:00;5.93;;;5.33;;
2494;SDS011;1258;48.336;14.322;2023-12-20T00:49:28;6.17;;;5.20;;
2494;SDS011;1258;48.336;14.322;2023-12-20T00:51:55;7.50;;;6.80;;
2494;SDS011;1258;48.336;14.322;2023-12-20T00:54:22;9.83;;;6.73;;
2494;SDS011;1258;48.336;14.322;2023-12-20T00:56:49;9.77;;;8.30;;
2494;SDS011;1258;48.336;14.322;2023-12-20T00:59:16;10.33;;;8.10;;
2494;SDS011;1258;48.336;14.322;2023-12-20T01:01:43;15.00;;;12.20;;
2494;SDS011;1258;48.336;14.322;2023-12-20T01:04:10;17.43;;;13.80;;
2494;SDS011;1258;48.336;14.322;2023-12-20T01:06:38;13.60;;;10.93;;
2494;SDS011;1258;48.336;14.322;2023-12-20T01:09:05;11.57;;;9.40;;
2494;SDS011;1258;48.336;14.322;2023-12-20T01:11:32;9.93;;;7.57;;
2494;SDS011;1258;48.336;14.322;2023-12-20T01:13:59;9.67;;;8.67;;
2494;SDS011;1258;48.336;14.322;2023-12-20T01:16:26;9.20;;;8.17;;
2494;SDS011;1258;48.336;14.322;2023-12-20T01:18:53;10.20;;;7.90;;
2494;SDS011;1258;48.336;14.322;2023-12-20T01:21:20;10.50;;;9.20;;
2494;SDS011;1258;48.336;14.322;2023-12-20T01:23:48;9.87;;;8.73;;
2494;SDS011;1258;48.336;14.322;2023-12-20T01:26:15;9.07;;;7.83;;
2494;SDS011;1258;48.336;14.322;2023-12-20T01:28:42;8.33;;;7.60;;
2494;SDS011;1258;48.336;14.322;2023-12-20T01:31:09;10.10;;;9.10;;
2494;SDS011;1258;48.336;14.322;2023-12-20T01:33:36;8.90;;;8.10;;
2494;SDS011;1258;48.336;14.322;2023-12-20T01:36:03;8.87;;;7.40;;
2494;SDS011;1258;48.336;14.322;2023-12-20T01:38:31;7.07;;;6.47;;
2494;SDS011;1258;48.336;14.322;2023-12-20T01:40:59;8.80;;;8.00;;
2494;SDS011;1258;48.336;14.322;2023-12-20T01:43:26;7.43;;;6.73;;
2494;SDS011;1258;48.336;14.322;2023-12-20T01:45:53;7.20;;;6.60;;
2494;SDS011;1258;48.336;14.322;2023-12-20T01:48:22;7.40;;;6.70;;
2494;SDS011;1258;48.336;14.322;2023-12-20T01:50:49;6.50;;;5.90;;
2494;SDS011;1258;48.336;14.322;2023-12-20T01:53:17;7.23;;;6.63;;
2494;SDS011;1258;48.336;14.322;2023-12-20T01:55:45;6.27;;;5.77;;
2494;SDS011;1258;48.336;14.322;2023-12-20T01:58:15;6.73;;;6.13;;
2494;SDS011;1258;48.336;14.322;2023-12-20T02:00:42;7.10;;;6.50;;
2494;SDS011;1258;48.336;14.322;2023-12-20T02:03:10;6.10;;;5.60;;
2494;SDS011;1258;48.336;14.322;2023-12-20T02:05:38;8.27;;;5.90;;
2494;SDS011;1258;48.336;14.322;2023-12-20T02:08:06;5.30;;;4.80;;
2494;SDS011;1258;48.336;14.322;2023-12-20T02:10:33;5.00;;;4.60;;
2494;SDS011;1258;48.336;14.322;2023-12-20T02:13:01;5.70;;;5.20;;
2494;SDS011;1258;48.336;14.322;2023-12-20T02:15:29;6.10;;;5.50;;
2494;SDS011;1258;48.336;14.322;2023-12-20T02:17:56;6.47;;;5.87;;
2494;SDS011;1258;48.336;14.322;2023-12-20T02:20:23;6.30;;;5.80;;
2494;SDS011;1258;48.336;14.322;2023-12-20T02:22:51;6.20;;;5.60;;
2494;SDS011;1258;48.336;14.322;2023-12-20T02:25:18;6.60;;;6.00;;
2494;SDS011;1258;48.336;14.322;2023-12-20T02:27:45;6.97;;;6.37;;
2494;SDS011;1258;48.336;14.322;2023-12-20T02:30:12;6.60;;;6.00;;
2494;SDS011;1258;48.336;14.322;2023-12-20T02:32:38;6.40;;;5.80;;
2494;SDS011;1258;48.336;14.322;2023-12-20T02:35:06;5.97;;;5.47;;
2494;SDS011;1258;48.336;14.322;2023-12-20T02:37:33;7.43;;;5.70;;
2494;SDS011;1258;48.336;14.322;2023-12-20T02:40:01;5.63;;;5.13;;
2494;SDS011;1258;48.336;14.322;2023-12-20T02:42:29;6.80;;;6.03;;
2494;SDS011;1258;48.336;14.322;2023-12-20T02:44:56;6.60;;;6.00;;
2494;SDS011;1258;48.336;14.322;2023-12-20T02:47:23;6.27;;;5.67;;
2494;SDS011;1258;48.336;14.322;2023-12-20T02:49:50;5.40;;;5.00;;
2494;SDS011;1258;48.336;14.322;2023-12-20T02:52:18;5.73;;;5.23;;
2494;SDS011;1258;48.336;14.322;2023-12-20T02:54:44;6.40;;;5.80;;
2494;SDS011;1258;48.336;14.322;2023-12-20T02:57:13;6.10;;;5.57;;
2494;SDS011;1258;48.336;14.322;2023-12-20T02:59:40;5.97;;;5.40;;
2494;SDS011;1258;48.336;14.322;2023-12-20T03:02:06;5.20;;;4.80;;
2494;SDS011;1258;48.336;14.322;2023-12-20T03:04:33;5.17;;;4.77;;
2494;SDS011;1258;48.336;14.322;2023-12-20T03:07:00;5.27;;;4.87;;
2494;SDS011;1258;48.336;14.322;2023-12-20T03:09:27;4.83;;;4.43;;
2494;SDS011;1258;48.336;14.322;2023-12-20T03:11:54;4.80;;;4.40;;
2494;SDS011;1258;48.336;14.322;2023-12-20T03:14:22;5.20;;;4.70;;
2494;SDS011;1258;48.336;14.322;2023-12-20T03:16:49;4.23;;;3.90;;
2494;SDS011;1258;48.336;14.322;2023-12-20T03:19:16;4.67;;;4.27;;
2494;SDS011;1258;48.336;14.322;2023-12-20T03:21:44;5.50;;;5.00;;
2494;SDS011;1258;48.336;14.322;2023-12-20T03:24:11;4.10;;;3.80;;
2494;SDS011;1258;48.336;14.322;2023-12-20T03:26:38;4.77;;;4.37;;
2494;SDS011;1258;48.336;14.322;2023-12-20T03:29:05;4.60;;;4.20;;
2494;SDS011;1258;48.336;14.322;2023-12-20T03:31:33;4.93;;;4.53;;
2494;SDS011;1258;48.336;14.322;2023-12-20T03:34:00;4.73;;;4.33;;
2494;SDS011;1258;48.336;14.322;2023-12-20T03:36:27;5.47;;;4.53;;
2494;SDS011;1258;48.336;14.322;2023-12-20T03:38:54;4.60;;;4.20;;
2494;SDS011;1258;48.336;14.322;2023-12-20T03:41:21;5.53;;;5.03;;
2494;SDS011;1258;48.336;14.322;2023-12-20T03:43:47;4.60;;;4.20;;
2494;SDS011;1258;48.336;14.322;2023-12-20T03:46:14;5.50;;;4.80;;
2494;SDS011;1258;48.336;14.322;2023-12-20T03:48:43;4.50;;;4.10;;
2494;SDS011;1258;48.336;14.322;2023-12-20T03:51:09;5.27;;;4.80;;
2494;SDS011;1258;48.336;14.322;2023-12-20T03:53:37;4.20;;;3.90;;
2494;SDS011;1258;48.336;14.322;2023-12-20T03:56:05;4.50;;;4.10;;
2494;SDS011;1258;48.336;14.322;2023-12-20T03:58:33;4.67;;;4.27;;
2494;SDS011;1258;48.336;14.322;2023-12-20T04:01:00;4.70;;;4.30;;
2494;SDS011;1258;48.336;14.322;2023-12-20T04:03:27;4.67;;;4.27;;
2494;SDS011;1258;48.336;14.322;2023-12-20T04:05:55;5.23;;;4.80;;
2494;SDS011;1258;48.336;14.322;2023-12-20T04:08:22;4.90;;;4.50;;
2494;SDS011;1258;48.336;14.322;2023-12-20T04:10:49;6.03;;;5.37;;
2494;SDS011;1258;48.336;14.322;2023-12-20T04:13:16;4.80;;;4.40;;
2494;SDS011;1258;48.336;14.322;2023-12-20T04:15:43;5.70;;;5.20;;
2494;SDS011;1258;48.336;14.322;2023-12-20T04:18:10;4.93;;;4.53;;
2494;SDS011;1258;48.336;14.322;2023-12-20T04:20:37;4.67;;;4.30;;
2494;SDS011;1258;48.336;14.322;2023-12-20T04:23:05;4.37;;;3.93;;
2494;SDS011;1258;48.336;14.322;2023-12-20T04:25:32;4.30;;;3.90;;
2494;SDS011;1258;48.336;14.322;2023-12-20T04:27:59;4.57;;;4.17;;
2494;SDS011;1258;48.336;14.322;2023-12-20T04:30:26;3.67;;;3.37;;
2494;SDS011;1258;48.336;14.322;2023-12-20T04:32:52;3.87;;;3.57;;
2494;SDS011;1258;48.336;14.322;2023-12-20T04:35:19;3.63;;;3.07;;
2494;SDS011;1258;48.336;14.322;2023-12-20T04:37:46;4.67;;;3.70;;
2494;SDS011;1258;48.336;14.322;2023-12-20T04:40:15;3.37;;;3.07;;
2494;SDS011;1258;48.336;14.322;2023-12-20T04:42:43;3.37;;;3.07;;
2494;SDS011;1258;48.336;14.322;2023-12-20T04:45:09;2.90;;;2.60;;
2494;SDS011;1258;48.336;14.322;2023-12-20T04:47:38;3.50;;;3.20;;
2494;SDS011;1258;48.336;14.322;2023-12-20T04:50:05;4.00;;;3.70;;
2494;SDS011;1258;48.336;14.322;2023-12-20T04:52:33;3.40;;;3.10;;
2494;SDS011;1258;48.336;14.322;2023-12-20T04:55:00;3.47;;;3.17;;
2494;SDS011;1258;48.336;14.322;2023-12-20T04:57:28;3.03;;;2.83;;
2494;SDS011;1258;48.336;14.322;2023-12-20T04:59:55;3.23;;;2.93;;
2494;SDS011;1258;48.336;14.322;2023-12-20T05:02:22;3.10;;;2.90;;
2494;SDS011;1258;48.336;14.322;2023-12-20T05:04:49;3.50;;;3.20;;
2494;SDS011;1258;48.336;14.322;2023-12-20T05:07:16;3.10;;;2.80;;
2494;SDS011;1258;48.336;14.322;2023-12-20T05:09:43;3.47;;;3.17;;
2494;SDS011;1258;48.336;14.322;2023-12-20T05:12:10;3.17;;;2.87;;
2494;SDS011;1258;48.336;14.322;2023-12-20T05:14:38;4.03;;;3.60;;
2494;SDS011;1258;48.336;14.322;2023-12-20T05:17:05;4.60;;;3.90;;
2494;SDS011;1258;48.336;14.322;2023-12-20T05:19:32;3.13;;;2.83;;
2494;SDS011;1258;48.336;14.322;2023-12-20T05:22:00;4.80;;;4.10;;
2494;SDS011;1258;48.336;14.322;2023-12-20T05:24:27;3.80;;;3.47;;
2494;SDS011;1258;48.336;14.322;2023-12-20T05:26:54;3.73;;;3.43;;
2494;SDS011;1258;48.336;14.322;2023-12-20T05:29:21;3.80;;;3.50;;
2494;SDS011;1258;48.336;14.322;2023-12-20T05:31:49;3.97;;;3.57;;
2494;SDS011;1258;48.336;14.322;2023-12-20T05:34:16;3.73;;;3.43;;
2494;SDS011;1258;48.336;14.322;2023-12-20T05:36:43;3.90;;;3.23;;
2494;SDS011;1258;48.336;14.322;2023-12-20T05:39:10;3.90;;;3.60;;
2494;SDS011;1258;48.336;14.322;2023-12-20T05:41:37;3.70;;;3.30;;
2494;SDS011;1258;48.336;14.322;2023-12-20T05:44:04;3.13;;;2.90;;
2494;SDS011;1258;48.336;14.322;2023-12-20T05:46:31;4.43;;;3.40;;
2494;SDS011;1258;48.336;14.322;2023-12-20T05:48:59;4.00;;;3.70;;
2494;SDS011;1258;48.336;14.322;2023-12-20T05:51:26;3.73;;;3.43;;
2494;SDS011;1258;48.336;14.322;2023-12-20T05:53:53;3.53;;;3.23;;
2494;SDS011;1258;48.336;14.322;2023-12-20T05:56:19;3.40;;;3.10;;
2494;SDS011;1258;48.336;14.322;2023-12-20T05:58:47;3.93;;;3.53;;
2494;SDS011;1258;48.336;14.322;2023-12-20T06:01:14;5.00;;;4.10;;
2494;SDS011;1258;48.336;14.322;2023-12-20T06:03:42;6.63;;;5.97;;
2494;SDS011;1258;48.336;14.322;2023-12-20T06:06:10;9.63;;;7.60;;
2494;SDS011;1258;48.336;14.322;2023-12-20T06:08:38;6.53;;;5.93;;
2494;SDS011;1258;48.336;14.322;2023-12-20T06:11:05;7.70;;;6.87;;
2494;SDS011;1258;48.336;14.322;2023-12-20T06:13:32;8.57;;;6.37;;
2494;SDS011;1258;48.336;14.322;2023-12-20T06:15:58;7.67;;;6.97;;
2494;SDS011;1258;48.336;14.322;2023-12-20T06:18:25;8.33;;;6.23;;
2494;SDS011;1258;48.336;14.322;2023-12-20T06:20:52;6.10;;;5.43;;
2494;SDS011;1258;48.336;14.322;2023-12-20T06:23:20;6.37;;;5.33;;
2494;SDS011;1258;48.336;14.322;2023-12-20T06:25:47;5.90;;;5.40;;
2494;SDS011;1258;48.336;14.322;2023-12-20T06:28:15;4.43;;;4.03;;
2494;SDS011;1258;48.336;14.322;2023-12-20T06:30:41;6.23;;;5.63;;
2494;SDS011;1258;48.336;14.322;2023-12-20T06:33:08;4.47;;;4.07;;
2494;SDS011;1258;48.336;14.322;2023-12-20T06:35:36;4.20;;;3.87;;
2494;SDS011;1258;48.336;14.322;2023-12-20T06:38:03;4.60;;;4.20;;
2494;SDS011;1258;48.336;14.322;2023-12-20T06:40:31;4.50;;;4.10;;
2494;SDS011;1258;48.336;14.322;2023-12-20T06:42:58;5.20;;;4.30;;
2494;SDS011;1258;48.336;14.322;2023-12-20T06:45:25;5.00;;;4.60;;
2494;SDS011;1258;48.336;14.322;2023-12-20T06:47:52;4.93;;;4.53;;
2494;SDS011;1258;48.336;14.322;2023-12-20T06:50:19;4.97;;;4.53;;
2494;SDS011;1258;48.336;14.322;2023-12-20T06:52:46;4.60;;;4.20;;
2494;SDS011;1258;48.336;14.322;2023-12-20T06:55:14;4.73;;;4.20;;
2494;SDS011;1258;48.336;14.322;2023-12-20T06:57:43;4.97;;;4.50;;
2494;SDS011;1258;48.336;14.322;2023-12-20T07:00:11;5.47;;;4.97;;
2494;SDS011;1258;48.336;14.322;2023-12-20T14:36:59;2.43;;;2.23;;
2494;SDS011;1258;48.336;14.322;2023-12-20T14:39:26;2.20;;;2.00;;
2494;SDS011;1258;48.336;14.322;2023-12-20T14:41:53;2.27;;;2.07;;
2494;SDS011;1258;48.336;14.322;2023-12-20T14:44:20;2.80;;;2.50;;
2494;SDS011;1258;48.336;14.322;2023-12-20T14:46:47;2.57;;;2.37;;
2494;SDS011;1258;48.336;14.322;2023-12-20T14:49:14;2.83;;;2.30;;
2494;SDS011;1258;48.336;14.322;2023-12-20T14:51:43;2.30;;;2.10;;
2494;SDS011;1258;48.336;14.322;2023-12-20T14:54:14;2.50;;;2.30;;
2494;SDS011;1258;48.336;14.322;2023-12-20T14:56:41;2.60;;;2.40;;
2494;SDS011;1258;48.336;14.322;2023-12-20T14:59:08;2.27;;;2.17;;
2494;SDS011;1258;48.336;14.322;2023-12-20T15:01:35;3.17;;;2.97;;
2494;SDS011;1258;48.336;14.322;2023-12-20T15:04:02;2.40;;;2.20;;
2494;SDS011;1258;48.336;14.322;2023-12-20T15:06:29;2.33;;;2.13;;
2494;SDS011;1258;48.336;14.322;2023-12-20T15:08:57;2.73;;;2.43;;
2494;SDS011;1258;48.336;14.322;2023-12-20T15:11:25;2.90;;;2.70;;
2494;SDS011;1258;48.336;14.322;2023-12-20T15:13:52;2.70;;;2.50;;
2494;SDS011;1258;48.336;14.322;2023-12-20T15:16:21;2.30;;;2.20;;
2494;SDS011;1258;48.336;14.322;2023-12-20T15:18:48;2.70;;;2.50;;
2494;SDS011;1258;48.336;14.322;2023-12-20T15:21:15;2.50;;;2.30;;
2494;SDS011;1258;48.336;14.322;2023-12-20T15:23:43;2.60;;;2.40;;
2494;SDS011;1258;48.336;14.322;2023-12-20T15:26:17;2.60;;;2.40;;
2494;SDS011;1258;48.336;14.322;2023-12-20T15:28:46;2.67;;;2.47;;
2494;SDS011;1258;48.336;14.322;2023-12-20T15:31:13;2.63;;;2.43;;
2494;SDS011;1258;48.336;14.322;2023-12-20T15:33:40;2.50;;;2.30;;
2494;SDS011;1258;48.336;14.322;2023-12-20T15:36:07;2.53;;;2.33;;
2494;SDS011;1258;48.336;14.322;2023-12-20T15:38:34;2.23;;;2.03;;
2494;SDS011;1258;48.336;14.322;2023-12-20T15:41:01;2.70;;;2.50;;
2494;SDS011;1258;48.336;14.322;2023-12-20T15:43:28;2.53;;;2.33;;
2494;SDS011;1258;48.336;14.322;2023-12-20T15:45:56;2.50;;;2.30;;
2494;SDS011;1258;48.336;14.322;2023-12-20T15:48:23;2.40;;;2.20;;
2494;SDS011;1258;48.336;14.322;2023-12-20T15:50:54;2.40;;;2.20;;
2494;SDS011;1258;48.336;14.322;2023-12-20T15:53:21;2.53;;;2.33;;
2494;SDS011;1258;48.336;14.322;2023-12-20T15:55:48;2.30;;;2.10;;
2494;SDS011;1258;48.336;14.322;2023-12-20T15:58:16;2.47;;;2.20;;
2494;SDS011;1258;48.336;14.322;2023-12-20T16:00:43;2.60;;;2.40;;
2494;SDS011;1258;48.336;14.322;2023-12-20T16:03:11;2.30;;;2.10;;
2494;SDS011;1258;48.336;14.322;2023-12-20T16:05:38;2.13;;;2.00;;
2494;SDS011;1258;48.336;14.322;2023-12-20T16:08:05;2.87;;;2.50;;
2494;SDS011;1258;48.336;14.322;2023-12-20T16:10:32;4.83;;;2.40;;
2494;SDS011;1258;48.336;14.322;2023-12-20T16:12:59;2.77;;;2.57;;
2494;SDS011;1258;48.336;14.322;2023-12-20T16:15:26;2.37;;;2.17;;
2494;SDS011;1258;48.336;14.322;2023-12-20T16:17:53;2.83;;;2.33;;
2494;SDS011;1258;48.336;14.322;2023-12-20T16:20:21;2.27;;;2.07;;
2494;SDS011;1258;48.336;14.322;2023-12-20T16:22:48;2.73;;;2.53;;
2494;SDS011;1258;48.336;14.322;2023-12-20T16:25:15;2.20;;;2.00;;
2494;SDS011;1258;48.336;14.322;2023-12-20T16:27:42;2.13;;;2.03;;
2494;SDS011;1258;48.336;14.322;2023-12-20T16:30:09;2.30;;;2.10;;
2494;SDS011;1258;48.336;14.322;2023-12-20T16:32:37;2.33;;;1.97;;
2494;SDS011;1258;48.336;14.322;2023-12-20T16:35:04;2.30;;;2.10;;
2494;SDS011;1258;48.336;14.322;2023-12-20T16:37:32;2.90;;;2.60;;
2494;SDS011;1258;48.336;14.322;2023-12-20T16:40:03;2.33;;;2.13;;
2494;SDS011;1258;48.336;14.322;2023-12-20T16:42:30;2.70;;;2.50;;
2494;SDS011;1258;48.336;14.322;2023-12-20T16:44:57;2.60;;;2.40;;
2494;SDS011;1258;48.336;14.322;2023-12-20T16:47:24;2.83;;;2.50;;
2494;SDS011;1258;48.336;14.322;2023-12-20T16:49:51;3.20;;;2.90;;
2494;SDS011;1258;48.336;14.322;2023-12-20T16:52:18;3.30;;;2.70;;
2494;SDS011;1258;48.336;14.322;2023-12-20T16:54:46;2.63;;;2.43;;
2494;SDS011;1258;48.336;14.322;2023-12-20T16:57:13;3.87;;;2.57;;
2494;SDS011;1258;48.336;14.322;2023-12-20T16:59:41;2.90;;;2.70;;
2494;SDS011;1258;48.336;14.322;2023-12-20T17:02:09;2.90;;;2.50;;
2494;SDS011;1258;48.336;14.322;2023-12-20T17:04:36;2.87;;;2.63;;
2494;SDS011;1258;48.336;14.322;2023-12-20T17:07:03;3.03;;;2.83;;
2494;SDS011;1258;48.336;14.322;2023-12-20T17:09:30;2.90;;;2.70;;
2494;SDS011;1258;48.336;14.322;2023-12-20T17:11:58;2.67;;;2.47;;
2494;SDS011;1258;48.336;14.322;2023-12-20T17:14:25;2.77;;;2.57;;
2494;SDS011;1258;48.336;14.322;2023-12-20T17:16:52;2.50;;;2.30;;
2494;SDS011;1258;48.336;14.322;2023-12-20T17:19:19;3.03;;;2.83;;
2494;SDS011;1258;48.336;14.322;2023-12-20T17:21:48;2.90;;;2.67;;
2494;SDS011;1258;48.336;14.322;2023-12-20T17:24:15;2.50;;;2.30;;
2494;SDS011;1258;48.336;14.322;2023-12-20T17:26:42;2.80;;;2.60;;
2494;SDS011;1258;48.336;14.322;2023-12-20T17:29:11;3.63;;;2.80;;
2494;SDS011;1258;48.336;14.322;2023-12-20T17:31:38;2.83;;;2.63;;
2494;SDS011;1258;48.336;14.322;2023-12-20T17:34:07;3.00;;;2.80;;
2494;SDS011;1258;48.336;14.322;2023-12-20T17:36:36;3.30;;;3.00;;
2494;SDS011;1258;48.336;14.322;2023-12-20T17:39:03;3.20;;;3.00;;
2494;SDS011;1258;48.336;14.322;2023-12-20T17:41:30;3.63;;;3.30;;
2494;SDS011;1258;48.336;14.322;2023-12-20T17:43:57;3.90;;;3.60;;
2494;SDS011;1258;48.336;14.322;2023-12-20T17:46:26;4.00;;;3.03;;
2494;SDS011;1258;48.336;14.322;2023-12-20T17:48:53;3.57;;;3.23;;
2494;SDS011;1258;48.336;14.322;2023-12-20T17:51:21;3.03;;;2.83;;
2494;SDS011;1258;48.336;14.322;2023-12-20T17:53:48;3.10;;;2.80;;
2494;SDS011;1258;48.336;14.322;2023-12-20T17:56:15;3.63;;;3.10;;
2494;SDS011;1258;48.336;14.322;2023-12-20T17:58:43;2.93;;;2.73;;
2494;SDS011;1258;48.336;14.322;2023-12-20T18:01:10;2.93;;;2.63;;
2494;SDS011;1258;48.336;14.322;2023-12-20T18:03:40;2.60;;;2.40;;
2494;SDS011;1258;48.336;14.322;2023-12-20T18:06:08;2.77;;;2.53;;
2494;SDS011;1258;48.336;14.322;2023-12-20T18:08:34;2.97;;;2.67;;
2494;SDS011;1258;48.336;14.322;2023-12-20T18:11:01;3.33;;;3.10;;
2494;SDS011;1258;48.336;14.322;2023-12-20T18:13:29;3.40;;;3.10;;
2494;SDS011;1258;48.336;14.322;2023-12-20T18:15:56;3.20;;;2.90;;
2494;SDS011;1258;48.336;14.322;2023-12-20T18:18:23;2.90;;;2.67;;
2494;SDS011;1258;48.336;14.322;2023-12-20T18:20:51;2.63;;;2.43;;
2494;SDS011;1258;48.336;14.322;2023-12-20T18:23:19;3.20;;;2.90;;
2494;SDS011;1258;48.336;14.322;2023-12-20T18:25:46;4.20;;;3.10;;
2494;SDS011;1258;48.336;14.322;2023-12-20T18:28:13;3.60;;;3.30;;
2494;SDS011;1258;48.336;14.322;2023-12-20T18:30:40;4.70;;;3.13;;
2494;SDS011;1258;48.336;14.322;2023-12-20T18:33:07;3.13;;;2.90;;
2494;SDS011;1258;48.336;14.322;2023-12-20T18:35:34;2.77;;;2.57;;
2494;SDS011;1258;48.336;14.322;2023-12-20T18:38:04;3.50;;;3.20;;
2494;SDS011;1258;48.336;14.322;2023-12-20T18:40:31;3.17;;;2.87;;
2494;SDS011;1258;48.336;14.322;2023-12-20T18:42:57;2.83;;;2.63;;
2494;SDS011;1258;48.336;14.322;2023-12-20T18:45:25;3.20;;;2.23;;
2494;SDS011;1258;48.336;14.322;2023-12-20T18:47:52;2.77;;;2.50;;
2494;SDS011;1258;48.336;14.322;2023-12-20T18:50:19;3.10;;;2.80;;
2494;SDS011;1258;48.336;14.322;2023-12-20T18:52:46;3.47;;;2.87;;
2494;SDS011;1258;48.336;14.322;2023-12-20T18:55:14;2.70;;;2.50;;
2494;SDS011;1258;48.336;14.322;2023-12-20T18:57:41;3.37;;;2.70;;
2494;SDS011;1258;48.336;14.322;2023-12-20T19:00:10;2.90;;;2.70;;
2494;SDS011;1258;48.336;14.322;2023-12-20T19:02:38;3.60;;;2.67;;
2494;SDS011;1258;48.336;14.322;2023-12-20T19:05:06;2.73;;;2.53;;
2494;SDS011;1258;48.336;14.322;2023-12-20T19:07:33;3.10;;;2.80;;
2494;SDS011;1258;48.336;14.322;2023-12-20T19:10:00;2.87;;;2.67;;
2494;SDS011;1258;48.336;14.322;2023-12-20T19:12:29;3.03;;;2.77;;
2494;SDS011;1258;48.336;14.322;2023-12-20T19:14:55;3.60;;;3.30;;
2494;SDS011;1258;48.336;14.322;2023-12-20T19:17:22;4.10;;;2.80;;
2494;SDS011;1258;48.336;14.322;2023-12-20T19:19:50;2.63;;;2.43;;
2494;SDS011;1258;48.336;14.322;2023-12-20T19:22:17;4.10;;;3.73;;
2494;SDS011;1258;48.336;14.322;2023-12-20T19:24:44;3.57;;;2.80;;
2494;SDS011;1258;48.336;14.322;2023-12-20T19:27:11;4.03;;;2.67;;
2494;SDS011;1258;48.336;14.322;2023-12-20T19:29:39;3.10;;;2.57;;
2494;SDS011;1258;48.336;14.322;2023-12-20T19:32:06;3.23;;;2.57;;
2494;SDS011;1258;48.336;14.322;2023-12-20T19:34:33;5.43;;;2.80;;
2494;SDS011;1258;48.336;14.322;2023-12-20T19:36:59;3.23;;;2.90;;
2494;SDS011;1258;48.336;14.322;2023-12-20T19:39:26;2.97;;;2.30;;
2494;SDS011;1258;48.336;14.322;2023-12-20T19:41:53;3.53;;;2.67;;
2494;SDS011;1258;48.336;14.322;2023-12-20T19:44:20;2.80;;;2.60;;
2494;SDS011;1258;48.336;14.322;2023-12-20T19:46:48;2.77;;;2.57;;
2494;SDS011;1258;48.336;14.322;2023-12-20T19:49:15;3.07;;;2.70;;
2494;SDS011;1258;48.336;14.322;2023-12-20T19:51:46;3.10;;;2.67;;
2494;SDS011;1258;48.336;14.322;2023-12-20T19:54:13;3.27;;;2.80;;
2494;SDS011;1258;48.336;14.322;2023-12-20T19:56:39;3.07;;;2.77;;
2494;SDS011;1258;48.336;14.322;2023-12-20T19:59:06;4.27;;;2.70;;
2494;SDS011;1258;48.336;14.322;2023-12-20T20:01:33;3.73;;;2.63;;
2494;SDS011;1258;48.336;14.322;2023-12-20T20:04:07;2.70;;;2.47;;
2494;SDS011;1258;48.336;14.322;2023-12-20T20:06:35;2.83;;;2.53;;
2494;SDS011;1258;48.336;14.322;2023-12-20T20:09:02;2.97;;;2.70;;
2494;SDS011;1258;48.336;14.322;2023-12-20T20:11:29;3.10;;;2.80;;
2494;SDS011;1258;48.336;14.322;2023-12-20T20:13:56;2.57;;;2.37;;
2494;SDS011;1258;48.336;14.322;2023-12-20T20:16:23;2.80;;;2.60;;
2494;SDS011;1258;48.336;14.322;2023-12-20T20:18:50;3.10;;;2.80;;
2494;SDS011;1258;48.336;14.322;2023-12-20T20:21:19;2.80;;;2.60;;
2494;SDS011;1258;48.336;14.322;2023-12-20T20:23:45;3.20;;;2.90;;
2494;SDS011;1258;48.336;14.322;2023-12-20T20:26:12;2.73;;;2.53;;
2494;SDS011;1258;48.336;14.322;2023-12-20T20:28:39;4.03;;;3.03;;
2494;SDS011;1258;48.336;14.322;2023-12-20T20:31:06;2.53;;;2.33;;
2494;SDS011;1258;48.336;14.322;2023-12-20T20:33:33;2.83;;;2.53;;
2494;SDS011;1258;48.336;14.322;2023-12-20T20:36:00;3.07;;;2.77;;
2494;SDS011;1258;48.336;14.322;2023-12-20T20:38:30;2.80;;;2.60;;
2494;SDS011;1258;48.336;14.322;2023-12-20T20:40:57;4.30;;;2.80;;
2494;SDS011;1258;48.336;14.322;2023-12-20T20:43:24;3.13;;;2.90;;
2494;SDS011;1258;48.336;14.322;2023-12-20T20:45:52;4.17;;;2.40;;
2494;SDS011;1258;48.336;14.322;2023-12-20T20:48:19;2.73;;;2.30;;
2494;SDS011;1258;48.336;14.322;2023-12-20T20:50:46;3.23;;;2.93;;
2494;SDS011;1258;48.336;14.322;2023-12-20T20:53:13;2.70;;;2.50;;
2494;SDS011;1258;48.336;14.322;2023-12-20T20:55:41;2.23;;;2.00;;
2494;SDS011;1258;48.336;14.322;2023-12-20T20:58:08;2.80;;;2.00;;
2494;SDS011;1258;48.336;14.322;2023-12-20T21:00:35;3.27;;;2.77;;
2494;SDS011;1258;48.336;14.322;2023-12-20T21:03:02;2.90;;;2.67;;
2494;SDS011;1258;48.336;14.322;2023-12-20T21:05:29;2.50;;;2.30;;
2494;SDS011;1258;48.336;14.322;2023-12-20T21:07:56;2.47;;;2.27;;
2494;SDS011;1258;48.336;14.322;2023-12-20T21:10:23;2.50;;;2.30;;
2494;SDS011;1258;48.336;14.322;2023-12-20T21:12:52;2.80;;;2.37;;
2494;SDS011;1258;48.336;14.322;2023-12-20T21:15:19;2.67;;;2.47;;
2494;SDS011;1258;48.336;14.322;2023-12-20T21:17:46;2.43;;;2.23;;
2494;SDS011;1258;48.336;14.322;2023-12-20T21:20:13;2.53;;;2.30;;
2494;SDS011;1258;48.336;14.322;2023-12-20T21:22:40;2.33;;;2.13;;
2494;SDS011;1258;48.336;14.322;2023-12-20T21:25:07;3.03;;;2.80;;
2494;SDS011;1258;48.336;14.322;2023-12-20T21:27:35;2.70;;;2.50;;
2494;SDS011;1258;48.336;14.322;2023-12-20T21:30:05;2.83;;;2.57;;
2494;SDS011;1258;48.336;14.322;2023-12-20T21:32:34;2.23;;;2.03;;
2494;SDS011;1258;48.336;14.322;2023-12-20T21:35:02;2.60;;;2.40;;
2494;SDS011;1258;48.336;14.322;2023-12-20T21:37:29;2.60;;;2.40;;
2494;SDS011;1258;48.336;14.322;2023-12-20T21:39:56;2.63;;;2.43;;
2494;SDS011;1258;48.336;14.322;2023-12-20T21:42:23;2.57;;;2.27;;
2494;SDS011;1258;48.336;14.322;2023-12-20T21:44:50;3.27;;;2.13;;
2494;SDS011;1258;48.336;14.322;2023-12-20T21:47:18;2.40;;;2.20;;
2494;SDS011;1258;48.336;14.322;2023-12-20T21:49:45;2.30;;;2.00;;
2494;SDS011;1258;48.336;14.322;2023-12-20T21:52:12;3.00;;;2.30;;
2494;SDS011;1258;48.336;14.322;2023-12-20T21:54:39;9.00;;;3.70;;
2494;SDS011;1258;48.336;14.322;2023-12-20T21:57:06;2.90;;;2.00;;
2494;SDS011;1258;48.336;14.322;2023-12-20T21:59:33;2.70;;;2.30;;
2494;SDS011;1258;48.336;14.322;2023-12-20T22:02:00;2.43;;;2.23;;
2494;SDS011;1258;48.336;14.322;2023-12-20T22:04:28;2.30;;;2.10;;
2494;SDS011;1258;48.336;14.322;2023-12-20T22:06:55;2.40;;;2.20;;
2494;SDS011;1258;48.336;14.322;2023-12-20T22:09:22;2.40;;;2.20;;
2494;SDS011;1258;48.336;14.322;2023-12-20T22:11:49;2.83;;;1.77;;
2494;SDS011;1258;48.336;14.322;2023-12-20T22:14:16;2.30;;;2.10;;
2494;SDS011;1258;48.336;14.322;2023-12-20T22:16:42;2.37;;;2.10;;
2494;SDS011;1258;48.336;14.322;2023-12-20T22:19:09;2.53;;;2.33;;
2494;SDS011;1258;48.336;14.322;2023-12-20T22:21:37;1.63;;;1.50;;
2494;SDS011;1258;48.336;14.322;2023-12-20T22:24:05;2.40;;;2.20;;
2494;SDS011;1258;48.336;14.322;2023-12-20T22:26:32;2.50;;;2.30;;
2494;SDS011;1258;48.336;14.322;2023-12-20T22:28:59;1.90;;;1.80;;
2494;SDS011;1258;48.336;14.322;2023-12-20T22:31:25;3.03;;;2.00;;
2494;SDS011;1258;48.336;14.322;2023-12-20T22:33:52;2.47;;;2.27;;